Time;durP1;ratioP1;P1;durP2;ratioP2;P2;SDS_P1;SDS_P2;PMS_P1;PMS_P2;Temp;Humidity;BMP_temperature;BMP_pressure;BME280_temperature;BME280_humidity;BME280_pressure;Samples;Min_cycle;Max_cycle;Signal;HPM_P1;HPM_P2
2022/10/29 05:00:08;;;;;;;7.60;5.05;;;;;;;;;;6154332;23;21281;31
2022/10/29 05:02:35;;;;;;;5.80;5.18;;;;;;;;;;5058780;23;20437;-82
2022/10/29 05:05:01;;;;;;;6.30;5.00;;;;;;;;;;5049009;28;20413;-82
2022/10/29 05:07:30;;;;;;;5.97;5.03;;;;;;;;;;5045392;28;20401;-82
2022/10/29 05:10:01;;;;;;;5.40;4.88;;;;;;;;;;5046923;28;20397;-82
2022/10/29 05:12:33;;;;;;;6.55;4.70;;;;;;;;;;5052716;28;20385;-82
2022/10/29 05:14:59;;;;;;;5.07;4.57;;;;;;;;;;5038278;28;20880;-82
2022/10/29 05:17:28;;;;;;;4.90;4.35;;;;;;;;;;5046542;28;20385;-82
2022/10/29 05:19:56;;;;;;;4.60;3.78;;;;;;;;;;5041670;28;20419;-82
2022/10/29 05:22:28;;;;;;;4.57;4.13;;;;;;;;;;5031129;28;20371;-81
2022/10/29 05:24:54;;;;;;;5.32;4.13;;;;;;;;;;5052291;28;20431;-81
2022/10/29 05:27:22;;;;;;;6.30;4.10;;;;;;;;;;5048703;28;20862;-82
2022/10/29 05:29:48;;;;;;;7.28;3.80;;;;;;;;;;5052545;28;20431;-82
2022/10/29 05:32:16;;;;;;;6.00;4.00;;;;;;;;;;5052544;28;20381;-81
2022/10/29 05:34:53;;;;;;;5.72;4.15;;;;;;;;;;5052192;28;20381;-81
2022/10/29 05:37:19;;;;;;;5.30;3.88;;;;;;;;;;5052742;28;20373;-82
2022/10/29 05:39:45;;;;;;;5.78;3.97;;;;;;;;;;5052370;28;20389;-81
2022/10/29 05:42:11;;;;;;;8.50;4.38;;;;;;;;;;5052267;28;20381;-81
2022/10/29 05:44:37;;;;;;;4.57;3.70;;;;;;;;;;5052574;28;20438;-81
2022/10/29 05:47:03;;;;;;;6.78;3.83;;;;;;;;;;5052250;28;20374;-83
2022/10/29 05:49:29;;;;;;;5.65;4.43;;;;;;;;;;5052494;28;20384;-82
2022/10/29 05:51:55;;;;;;;7.13;5.40;;;;;;;;;;5052223;28;20389;-82
2022/10/29 05:54:21;;;;;;;5.97;4.70;;;;;;;;;;5052261;28;20416;-86
2022/10/29 05:56:47;;;;;;;5.03;4.25;;;;;;;;;;5052221;28;20420;-86
2022/10/29 05:59:13;;;;;;;4.70;3.92;;;;;;;;;;5052209;28;20381;-84
2022/10/29 06:01:39;;;;;;;6.25;4.43;;;;;;;;;;5034108;28;20406;-85
2022/10/29 06:04:05;;;;;;;5.32;4.40;;;;;;;;;;5040374;28;20386;-86
2022/10/29 06:06:31;;;;;;;6.07;4.27;;;;;;;;;;5051923;28;20382;-84
2022/10/29 06:08:57;;;;;;;5.00;4.25;;;;;;;;;;5052070;28;20377;-86
2022/10/29 06:11:23;;;;;;;5.47;3.80;;;;;;;;;;5052059;28;20772;-86
2022/10/29 06:13:49;;;;;;;6.75;3.88;;;;;;;;;;5052001;28;20385;-85
2022/10/29 06:16:16;;;;;;;4.85;4.28;;;;;;;;;;5051874;28;20404;-85
2022/10/29 06:18:42;;;;;;;4.40;4.00;;;;;;;;;;5031786;28;20458;-86
2022/10/29 06:21:08;;;;;;;5.10;3.92;;;;;;;;;;5050243;28;20936;-86
2022/10/29 06:23:34;;;;;;;5.32;4.28;;;;;;;;;;5043904;28;20385;-87
2022/10/29 06:26:00;;;;;;;4.97;4.33;;;;;;;;;;5037015;28;20403;-84
2022/10/29 06:28:26;;;;;;;8.00;3.78;;;;;;;;;;5046812;28;20375;-85
2022/10/29 06:30:52;;;;;;;5.35;4.03;;;;;;;;;;5029580;28;20379;-85
2022/10/29 06:33:19;;;;;;;6.53;4.38;;;;;;;;;;5039799;28;20386;-85
2022/10/29 06:35:45;;;;;;;4.68;4.22;;;;;;;;;;5047699;28;20771;-85
2022/10/29 06:38:11;;;;;;;8.00;4.53;;;;;;;;;;5050736;28;20422;-83
2022/10/29 06:40:37;;;;;;;7.22;4.50;;;;;;;;;;5047926;28;20485;-82
2022/10/29 06:43:23;;;;;;;4.88;4.25;;;;;;;;;;5036138;28;20925;-82
2022/10/29 06:45:52;;;;;;;5.07;4.03;;;;;;;;;;5056048;28;20874;-81
2022/10/29 06:48:18;;;;;;;4.30;3.90;;;;;;;;;;5055699;28;20384;-83
2022/10/29 06:50:44;;;;;;;6.10;4.07;;;;;;;;;;5036728;28;20381;-83
2022/10/29 06:53:11;;;;;;;5.35;3.83;;;;;;;;;;5055848;28;20443;-81
2022/10/29 06:55:38;;;;;;;6.07;4.30;;;;;;;;;;5052947;28;20381;-82
2022/10/29 06:58:10;;;;;;;6.38;4.55;;;;;;;;;;5034458;28;20510;-81
2022/10/29 07:00:36;;;;;;;5.38;4.10;;;;;;;;;;5029597;28;20389;-82
2022/10/29 07:03:03;;;;;;;6.13;4.88;;;;;;;;;;5035309;28;20406;-81
2022/10/29 07:05:35;;;;;;;9.25;5.13;;;;;;;;;;5055050;28;20878;-82
2022/10/29 07:08:07;;;;;;;5.95;4.85;;;;;;;;;;5055505;28;20385;-82
2022/10/29 07:10:33;;;;;;;7.85;4.65;;;;;;;;;;5054584;28;20728;-82
2022/10/29 07:13:04;;;;;;;5.30;4.50;;;;;;;;;;5054811;28;20381;-82
2022/10/29 07:15:32;;;;;;;8.05;5.20;;;;;;;;;;5036522;28;20744;-82
2022/10/29 07:18:09;;;;;;;7.07;5.10;;;;;;;;;;5028031;28;20794;-82
2022/10/29 07:20:40;;;;;;;7.43;5.10;;;;;;;;;;5055249;28;20408;-81
2022/10/29 07:23:10;;;;;;;7.20;6.50;;;;;;;;;;5037193;28;20426;-82
2022/10/29 07:25:44;;;;;;;11.82;8.98;;;;;;;;;;5054924;28;20496;-82
2022/10/29 07:28:19;;;;;;;8.52;7.28;;;;;;;;;;5055429;28;20443;-82
2022/10/29 07:30:52;;;;;;;7.45;5.65;;;;;;;;;;5037143;28;20933;-82
2022/10/29 07:33:21;;;;;;;6.05;4.65;;;;;;;;;;5055494;28;20381;-82
2022/10/29 07:35:47;;;;;;;5.23;4.57;;;;;;;;;;5054939;28;20464;-82
2022/10/29 07:38:13;;;;;;;5.68;4.78;;;;;;;;;;5054806;28;20381;-82
2022/10/29 07:40:40;;;;;;;6.32;5.72;;;;;;;;;;5054920;28;20872;-82
2022/10/29 07:43:11;;;;;;;6.50;5.90;;;;;;;;;;5054547;28;20447;-82
2022/10/29 07:45:48;;;;;;;6.15;5.55;;;;;;;;;;5054818;28;20440;-82
2022/10/29 07:48:19;;;;;;;6.32;5.80;;;;;;;;;;5054696;28;20378;-82
2022/10/29 07:50:57;;;;;;;5.80;5.20;;;;;;;;;;5054685;28;20370;-82
2022/10/29 07:53:24;;;;;;;5.85;5.05;;;;;;;;;;5054610;28;20373;-82
2022/10/29 07:55:56;;;;;;;5.72;5.10;;;;;;;;;;5054718;28;20417;-82
2022/10/29 07:58:25;;;;;;;7.15;5.20;;;;;;;;;;5054480;28;20385;-82
2022/10/29 08:00:54;;;;;;;7.10;5.30;;;;;;;;;;5054180;28;20403;-82
2022/10/29 08:03:23;;;;;;;6.40;5.70;;;;;;;;;;5045409;28;20414;-82
2022/10/29 08:05:49;;;;;;;6.80;5.70;;;;;;;;;;5049296;28;20414;-82
2022/10/29 08:08:16;;;;;;;7.05;5.75;;;;;;;;;;5037313;28;20387;-82
2022/10/29 08:10:45;;;;;;;7.32;5.80;;;;;;;;;;5054228;28;20515;-82
2022/10/29 08:13:13;;;;;;;6.75;6.05;;;;;;;;;;5054231;28;20483;-82
2022/10/29 08:15:39;;;;;;;6.97;5.68;;;;;;;;;;5044099;28;20440;-82
2022/10/29 08:18:15;;;;;;;8.18;6.75;;;;;;;;;;5054193;28;20882;-82
2022/10/29 08:20:44;;;;;;;7.75;6.50;;;;;;;;;;5036010;28;20778;-82
2022/10/29 08:23:13;;;;;;;6.88;6.10;;;;;;;;;;5041738;28;20378;-82
2022/10/29 08:25:42;;;;;;;7.32;6.63;;;;;;;;;;5041727;28;20816;-82
2022/10/29 08:28:15;;;;;;;8.00;7.20;;;;;;;;;;5025993;28;20374;-82
2022/10/29 08:30:51;;;;;;;7.47;6.65;;;;;;;;;;5054007;28;20381;-82
2022/10/29 08:33:19;;;;;;;7.57;6.72;;;;;;;;;;5042446;28;20398;-83
2022/10/29 08:35:45;;;;;;;11.37;7.87;;;;;;;;;;5030805;28;20395;-83
2022/10/29 08:38:14;;;;;;;10.63;8.20;;;;;;;;;;5051651;28;20431;-83
2022/10/29 08:40:54;;;;;;;11.37;8.30;;;;;;;;;;5040031;28;20410;-83
2022/10/29 08:43:35;;;;;;;10.93;8.63;;;;;;;;;;5042676;28;20420;-82
2022/10/29 08:46:09;;;;;;;11.90;9.43;;;;;;;;;;5041433;28;20430;-83
2022/10/29 08:48:43;;;;;;;16.30;8.77;;;;;;;;;;5037848;28;20499;-84
2022/10/29 08:51:14;;;;;;;11.50;9.30;;;;;;;;;;5035996;28;20378;-83
2022/10/29 08:53:43;;;;;;;12.40;8.65;;;;;;;;;;5025574;28;20382;-83
2022/10/29 08:56:13;;;;;;;12.05;9.32;;;;;;;;;;5052797;28;20829;-83
2022/10/29 08:58:45;;;;;;;10.50;8.67;;;;;;;;;;5053389;28;20381;-83
2022/10/29 09:01:14;;;;;;;10.57;9.23;;;;;;;;;;5053101;28;20408;-83
2022/10/29 09:03:40;;;;;;;14.18;10.27;;;;;;;;;;5044317;28;20472;-82
2022/10/29 09:06:24;;;;;;;15.57;10.73;;;;;;;;;;5053146;28;20488;-83
2022/10/29 09:09:00;;;;;;;20.15;11.77;;;;;;;;;;5035141;28;20377;-83
2022/10/29 09:11:36;;;;;;;13.82;11.23;;;;;;;;;;5053329;28;20390;-83
2022/10/29 09:14:20;;;;;;;22.75;13.38;;;;;;;;;;5052964;28;20846;-83
2022/10/29 09:16:49;;;;;;;24.63;16.85;;;;;;;;;;5052766;28;20382;-83
2022/10/29 09:19:35;;;;;;;25.30;17.58;;;;;;;;;;5034248;28;20488;-83
2022/10/29 09:22:12;;;;;;;23.17;14.93;;;;;;;;;;5038458;28;20395;-83
2022/10/29 09:24:57;;;;;;;21.90;14.93;;;;;;;;;;5029854;28;20900;-83
2022/10/29 09:27:41;;;;;;;24.60;14.70;;;;;;;;;;5022734;28;20387;-83
2022/10/29 09:30:22;;;;;;;23.17;16.40;;;;;;;;;;5040850;28;20435;-83
2022/10/29 09:32:48;;;;;;;23.13;15.20;;;;;;;;;;5052042;28;20414;-83
2022/10/29 09:35:16;;;;;;;20.52;15.43;;;;;;;;;;5052095;28;20711;-83
2022/10/29 09:37:55;;;;;;;22.10;15.03;;;;;;;;;;5052951;28;20381;-87
2022/10/29 09:40:35;;;;;;;24.55;15.85;;;;;;;;;;5052303;28;20382;-86
2022/10/29 09:43:21;;;;;;;71.00;19.33;;;;;;;;;;5043284;28;20399;-88
2022/10/29 09:45:54;;;;;;;31.88;14.70;;;;;;;;;;5041455;28;20420;-87
2022/10/29 09:48:26;;;;;;;28.05;15.32;;;;;;;;;;5055079;28;20407;-87
2022/10/29 09:51:17;;;;;;;23.88;15.02;;;;;;;;;;5052623;28;20377;-88
2022/10/29 09:53:44;;;;;;;24.80;15.13;;;;;;;;;;5052874;28;20377;-87
2022/10/29 09:56:10;;;;;;;23.55;15.93;;;;;;;;;;5052390;28;20937;-86
2022/10/29 09:58:45;;;;;;;21.95;14.70;;;;;;;;;;5052157;28;20857;-86
2022/10/29 10:01:21;;;;;;;21.95;13.60;;;;;;;;;;5052369;28;20390;-87
2022/10/29 10:03:54;;;;;;;21.10;13.02;;;;;;;;;;5043189;28;20413;-87
2022/10/29 10:06:23;;;;;;;20.27;13.68;;;;;;;;;;5048091;28;20439;-83
2022/10/29 10:09:05;;;;;;;25.27;16.25;;;;;;;;;;5019358;28;20897;-83
2022/10/29 10:11:43;;;;;;;17.85;13.88;;;;;;;;;;5052005;28;20464;-83
2022/10/29 10:14:20;;;;;;;20.73;14.77;;;;;;;;;;5050122;28;20377;-83
2022/10/29 10:16:46;;;;;;;23.25;14.63;;;;;;;;;;5052206;28;20415;-82
2022/10/29 10:19:23;;;;;;;21.38;14.82;;;;;;;;;;5051982;28;20393;-83
2022/10/29 10:22:01;;;;;;;24.40;14.87;;;;;;;;;;5052096;28;20380;-83
2022/10/29 10:24:39;;;;;;;17.90;11.95;;;;;;;;;;5051899;28;20409;-83
2022/10/29 10:27:24;;;;;;;19.67;11.25;;;;;;;;;;5052016;28;20373;-83
2022/10/29 10:30:08;;;;;;;18.63;11.90;;;;;;;;;;5046126;28;20779;-84
2022/10/29 10:32:35;;;;;;;22.40;12.07;;;;;;;;;;5042341;28;20379;-88
2022/10/29 10:35:03;;;;;;;21.05;11.32;;;;;;;;;;5033582;28;20391;-89
2022/10/29 10:37:33;;;;;;;19.90;11.30;;;;;;;;;;5033600;28;20383;-88
2022/10/29 10:39:59;;;;;;;16.73;10.90;;;;;;;;;;5051392;28;20870;-88
2022/10/29 10:42:31;;;;;;;16.08;10.15;;;;;;;;;;5051939;28;20388;-87
2022/10/29 10:45:01;;;;;;;19.02;10.90;;;;;;;;;;5051665;28;20543;-87
2022/10/29 10:47:36;;;;;;;15.75;10.00;;;;;;;;;;5051682;28;20380;-88
2022/10/29 10:50:10;;;;;;;18.35;10.52;;;;;;;;;;5051707;28;20382;-82
2022/10/29 10:52:41;;;;;;;16.92;10.80;;;;;;;;;;5051624;28;20370;-81
2022/10/29 10:55:22;;;;;;;29.90;18.63;;;;;;;;;;5051740;28;20386;-81
2022/10/29 10:57:56;;;;;;;27.77;17.55;;;;;;;;;;5051699;28;20387;-81
2022/10/29 11:00:26;;;;;;;37.15;19.95;;;;;;;;;;5051573;28;20400;-82
2022/10/29 11:03:10;;;;;;;38.88;22.33;;;;;;;;;;5044067;28;20779;-81
2022/10/29 11:05:39;;;;;;;36.28;19.98;;;;;;;;;;5021310;28;20458;-82
2022/10/29 11:08:11;;;;;;;35.20;20.55;;;;;;;;;;5012512;28;20450;-90
2022/10/29 11:10:41;;;;;;;34.78;20.05;;;;;;;;;;5017294;28;20894;-90
2022/10/29 11:13:12;;;;;;;39.03;20.20;;;;;;;;;;5023574;28;20410;-89
2022/10/29 11:15:38;;;;;;;29.80;19.40;;;;;;;;;;5017385;28;20861;-87
2022/10/29 11:18:10;;;;;;;36.80;20.83;;;;;;;;;;5015781;28;20385;-88
2022/10/29 11:20:37;;;;;;;37.03;19.57;;;;;;;;;;5042971;28;20853;-86
2022/10/29 11:23:22;;;;;;;34.40;20.38;;;;;;;;;;5016301;28;20389;-86
2022/10/29 11:25:54;;;;;;;35.70;19.88;;;;;;;;;;5016378;28;20443;-87
2022/10/29 11:28:25;;;;;;;28.77;16.90;;;;;;;;;;5016256;28;20446;-86
2022/10/29 11:30:56;;;;;;;28.45;16.58;;;;;;;;;;5027307;28;20379;-85
2022/10/29 11:33:27;;;;;;;30.77;17.65;;;;;;;;;;5013438;28;20384;-85
2022/10/29 11:35:57;;;;;;;27.83;17.20;;;;;;;;;;5012554;28;20454;-85
2022/10/29 11:38:25;;;;;;;32.88;17.33;;;;;;;;;;5011100;28;20385;-85
2022/10/29 11:41:03;;;;;;;30.50;14.85;;;;;;;;;;5012984;28;20384;-85
2022/10/29 11:43:30;;;;;;;25.58;14.45;;;;;;;;;;5022476;28;20431;-85
2022/10/29 11:45:59;;;;;;;25.25;15.13;;;;;;;;;;5039468;28;20754;-86
2022/10/29 11:48:25;;;;;;;26.35;14.02;;;;;;;;;;5025893;28;20384;-85
2022/10/29 11:50:59;;;;;;;22.40;12.50;;;;;;;;;;5032705;28;20858;-85
2022/10/29 11:53:31;;;;;;;16.73;9.75;;;;;;;;;;5050303;28;20424;-86
2022/10/29 11:55:57;;;;;;;22.10;9.73;;;;;;;;;;5054682;28;20805;-85
2022/10/29 11:58:33;;;;;;;16.35;8.70;;;;;;;;;;5040372;28;20385;-85
2022/10/29 12:01:03;;;;;;;17.23;9.07;;;;;;;;;;5054061;28;20389;-84
2022/10/29 12:03:34;;;;;;;19.02;8.80;;;;;;;;;;5042980;28;20392;-89
2022/10/29 12:06:19;;;;;;;15.27;7.90;;;;;;;;;;5054466;28;20776;-88
2022/10/29 12:09:03;;;;;;;16.80;7.93;;;;;;;;;;5053973;28;20377;-87
2022/10/29 12:11:35;;;;;;;15.32;7.82;;;;;;;;;;5054103;28;20385;-88
2022/10/29 12:14:04;;;;;;;13.93;6.87;;;;;;;;;;5048292;28;20462;-88
2022/10/29 12:16:50;;;;;;;14.68;6.50;;;;;;;;;;5042407;28;20385;-88
2022/10/29 12:19:35;;;;;;;14.00;7.57;;;;;;;;;;5009764;28;20928;-88
2022/10/29 12:22:29;;;;;;;17.30;7.53;;;;;;;;;;5053945;28;20377;-87
2022/10/29 12:25:08;;;;;;;16.42;8.60;;;;;;;;;;5053873;28;20405;-88
2022/10/29 12:27:45;;;;;;;14.73;8.20;;;;;;;;;;5045663;28;20466;-88
2022/10/29 12:30:13;;;;;;;17.90;7.93;;;;;;;;;;5052789;28;20461;-87
2022/10/29 12:32:45;;;;;;;13.03;7.87;;;;;;;;;;5053645;28;20384;-88
2022/10/29 12:35:17;;;;;;;18.48;8.48;;;;;;;;;;5053680;28;20389;-88
2022/10/29 12:37:55;;;;;;;17.70;8.55;;;;;;;;;;5047393;28;20383;-87
2022/10/29 12:40:23;;;;;;;16.30;8.45;;;;;;;;;;5036103;28;20385;-89
2022/10/29 12:42:56;;;;;;;15.63;8.32;;;;;;;;;;5053488;28;20405;-88
2022/10/29 12:45:35;;;;;;;13.32;8.55;;;;;;;;;;5053659;28;20417;-87
2022/10/29 12:48:09;;;;;;;20.45;10.05;;;;;;;;;;5053754;28;20377;-88
2022/10/29 12:50:48;;;;;;;14.75;6.95;;;;;;;;;;5035839;28;20393;-88
2022/10/29 12:53:38;;;;;;;13.43;6.78;;;;;;;;;;5035778;28;20386;-88
2022/10/29 12:56:06;;;;;;;12.43;7.60;;;;;;;;;;5053578;28;20373;-88
2022/10/29 12:58:55;;;;;;;13.13;6.60;;;;;;;;;;5053288;28;20465;-87
2022/10/29 13:01:30;;;;;;;9.00;5.60;;;;;;;;;;5053211;28;20889;-88
2022/10/29 13:04:01;;;;;;;11.00;6.00;;;;;;;;;;5044367;28;20392;-87
2022/10/29 13:06:48;;;;;;;15.07;5.82;;;;;;;;;;5053112;28;20413;-88
2022/10/29 13:09:14;;;;;;;12.27;6.03;;;;;;;;;;5053295;28;20722;-88
2022/10/29 13:11:43;;;;;;;12.02;6.78;;;;;;;;;;5053364;28;20381;-88
2022/10/29 13:14:17;;;;;;;16.17;6.88;;;;;;;;;;5053069;28;20377;-86
2022/10/29 13:16:45;;;;;;;10.88;6.95;;;;;;;;;;5052986;28;20875;-87
2022/10/29 13:19:15;;;;;;;12.80;6.55;;;;;;;;;;5038984;28;20457;-88
2022/10/29 13:22:22;;;;;;;11.70;6.88;;;;;;;;;;5052867;28;20381;-87
2022/10/29 13:25:08;;;;;;;14.25;6.50;;;;;;;;;;4952795;29;20418;-88
2022/10/29 13:27:36;;;;;;;11.93;5.95;;;;;;;;;;4952804;29;20393;-88
2022/10/29 13:30:22;;;;;;;11.75;5.82;;;;;;;;;;4952907;29;20390;-88
2022/10/29 13:32:48;;;;;;;11.00;5.55;;;;;;;;;;4952737;29;20743;-88
2022/10/29 13:35:20;;;;;;;9.80;5.65;;;;;;;;;;4947841;29;20398;-87
2022/10/29 13:37:46;;;;;;;12.13;5.32;;;;;;;;;;4952510;29;20401;-87
2022/10/29 13:40:30;;;;;;;11.52;5.50;;;;;;;;;;4952789;29;20402;-88
2022/10/29 13:43:14;;;;;;;15.45;5.28;;;;;;;;;;4952004;28;20402;-88
2022/10/29 13:45:51;;;;;;;9.70;4.78;;;;;;;;;;4952679;29;20828;-86
2022/10/29 13:48:24;;;;;;;12.52;5.03;;;;;;;;;;4952149;29;20398;-84
2022/10/29 13:50:54;;;;;;;11.07;4.97;;;;;;;;;;4952179;29;20901;-84
2022/10/29 13:53:22;;;;;;;9.50;4.72;;;;;;;;;;4952286;29;20510;-84
2022/10/29 13:55:51;;;;;;;7.03;4.05;;;;;;;;;;5015767;28;20386;-84
2022/10/29 13:58:33;;;;;;;8.63;4.32;;;;;;;;;;5049881;28;20385;-85
2022/10/29 14:01:07;;;;;;;8.50;4.10;;;;;;;;;;5030991;28;20403;-83
2022/10/29 14:04:02;;;;;;;7.38;3.92;;;;;;;;;;5021926;28;20443;-83
2022/10/29 14:06:39;;;;;;;10.95;4.10;;;;;;;;;;5014197;28;20859;-88
2022/10/29 14:09:19;;;;;;;9.90;4.10;;;;;;;;;;5020423;28;20438;-88
2022/10/29 14:11:58;;;;;;;8.52;3.80;;;;;;;;;;5021681;28;21096;-91
2022/10/29 14:14:35;;;;;;;8.18;3.85;;;;;;;;;;5019819;28;20441;-90
2022/10/29 14:17:13;;;;;;;8.90;4.03;;;;;;;;;;5010954;28;20460;-93
2022/10/29 14:19:49;;;;;;;8.32;3.67;;;;;;;;;;5025339;28;20386;-89
2022/10/29 14:22:21;;;;;;;10.33;3.80;;;;;;;;;;5034315;28;20391;-90
2022/10/29 14:24:50;;;;;;;8.35;3.40;;;;;;;;;;5007636;28;20408;-93
2022/10/29 14:27:41;;;;;;;10.30;3.53;;;;;;;;;;5033268;28;20835;-94
2022/10/29 14:30:35;;;;;;;7.97;3.60;;;;;;;;;;5038884;28;20397;-90
2022/10/29 14:33:03;;;;;;;7.93;3.70;;;;;;;;;;5024297;28;20411;-92
2022/10/29 14:35:32;;;;;;;7.47;3.72;;;;;;;;;;5030559;28;20398;-84
2022/10/29 14:38:23;;;;;;;8.23;3.80;;;;;;;;;;5040284;28;20387;-88
2022/10/29 14:40:57;;;;;;;12.27;4.32;;;;;;;;;;5022311;28;20397;-88
2022/10/29 14:43:25;;;;;;;9.37;4.10;;;;;;;;;;5030936;28;20454;-88
2022/10/29 14:45:54;;;;;;;9.68;3.55;;;;;;;;;;5028441;28;20431;-87
2022/10/29 14:48:20;;;;;;;9.80;3.90;;;;;;;;;;5025150;28;20395;-88
2022/10/29 14:50:48;;;;;;;8.63;3.80;;;;;;;;;;5030057;28;20383;-87
2022/10/29 14:53:40;;;;;;;7.10;4.15;;;;;;;;;;5028503;28;20395;-86
2022/10/29 14:56:10;;;;;;;10.88;4.45;;;;;;;;;;5047670;28;20378;-86
2022/10/29 14:58:40;;;;;;;12.43;5.00;;;;;;;;;;5024179;28;20389;-84
2022/10/29 15:01:23;;;;;;;11.90;4.95;;;;;;;;;;5016163;28;20388;-84
2022/10/29 15:04:03;;;;;;;9.20;5.10;;;;;;;;;;5025028;28;20404;-85
2022/10/29 15:06:29;;;;;;;9.53;5.03;;;;;;;;;;5018637;28;20443;-85
2022/10/29 15:09:02;;;;;;;12.40;4.88;;;;;;;;;;5027641;28;20458;-85
2022/10/29 15:11:37;;;;;;;10.70;4.85;;;;;;;;;;5041545;28;20408;-86
2022/10/29 15:14:23;;;;;;;12.52;4.95;;;;;;;;;;5036322;28;20374;-86
2022/10/29 15:16:49;;;;;;;12.45;6.70;;;;;;;;;;5040951;28;20449;-85
2022/10/29 15:19:15;;;;;;;10.63;5.60;;;;;;;;;;5032196;28;20423;-84
2022/10/29 15:21:44;;;;;;;10.38;5.40;;;;;;;;;;5031184;28;20469;-85
2022/10/29 15:24:16;;;;;;;13.02;5.53;;;;;;;;;;5027749;28;20391;-84
2022/10/29 15:27:02;;;;;;;13.00;5.50;;;;;;;;;;5032946;28;20394;-86
2022/10/29 15:29:35;;;;;;;11.95;5.80;;;;;;;;;;5030706;28;20377;-85
2022/10/29 15:32:01;;;;;;;11.20;6.15;;;;;;;;;;5028351;28;20429;-85
2022/10/29 15:34:46;;;;;;;10.23;5.50;;;;;;;;;;5040304;28;20441;-86
2022/10/29 15:37:20;;;;;;;13.15;5.35;;;;;;;;;;5035664;28;20510;-86
2022/10/29 15:39:58;;;;;;;11.57;5.67;;;;;;;;;;5032652;28;20502;-86
2022/10/29 15:42:32;;;;;;;12.98;5.40;;;;;;;;;;5020194;28;20381;-85
2022/10/29 15:45:36;;;;;;;13.13;6.13;;;;;;;;;;5024877;28;20871;-85
2022/10/29 15:48:07;;;;;;;16.70;6.72;;;;;;;;;;5054651;28;20377;-86
2022/10/29 15:50:44;;;;;;;15.32;7.13;;;;;;;;;;5054412;28;20460;-85
2022/10/29 15:53:19;;;;;;;13.90;7.20;;;;;;;;;;5054522;28;20414;-86
2022/10/29 15:55:53;;;;;;;25.77;9.60;;;;;;;;;;5054491;28;20382;-86
2022/10/29 15:58:22;;;;;;;19.00;9.13;;;;;;;;;;5054746;28;20373;-87
2022/10/29 16:00:48;;;;;;;29.02;12.75;;;;;;;;;;5053401;28;20388;-86
2022/10/29 16:03:23;;;;;;;16.75;10.10;;;;;;;;;;5034203;28;20543;-87
2022/10/29 16:05:51;;;;;;;22.73;12.02;;;;;;;;;;5030597;28;20414;-88
2022/10/29 16:08:26;;;;;;;46.50;18.53;;;;;;;;;;5052303;28;20393;-88
2022/10/29 16:10:53;;;;;;;210.55;93.22;;;;;;;;;;5041081;28;20435;-86
2022/10/29 16:13:22;;;;;;;137.57;61.60;;;;;;;;;;5049748;28;20439;-87
2022/10/29 16:15:48;;;;;;;76.72;34.88;;;;;;;;;;5016704;28;20392;-86
2022/10/29 16:18:14;;;;;;;99.25;45.58;;;;;;;;;;5046176;28;20381;-86
2022/10/29 16:20:40;;;;;;;103.70;47.27;;;;;;;;;;5029307;28;20481;-87
2022/10/29 16:23:11;;;;;;;95.07;43.60;;;;;;;;;;5017503;28;20397;-85
2022/10/29 16:25:40;;;;;;;115.82;52.08;;;;;;;;;;5012314;28;20404;-87
2022/10/29 16:28:06;;;;;;;140.15;66.50;;;;;;;;;;5020199;28;20418;-87
2022/10/29 16:30:32;;;;;;;136.50;66.43;;;;;;;;;;5032798;28;20382;-86
2022/10/29 16:32:59;;;;;;;89.85;40.25;;;;;;;;;;5052516;28;20401;-87
2022/10/29 16:35:28;;;;;;;83.25;36.55;;;;;;;;;;5018026;28;20472;-88
2022/10/29 16:38:00;;;;;;;93.65;42.90;;;;;;;;;;5016355;28;21024;-90
2022/10/29 16:40:28;;;;;;;79.50;38.17;;;;;;;;;;5018874;28;20392;-86
2022/10/29 16:42:54;;;;;;;62.67;29.17;;;;;;;;;;5014647;28;20381;-87
2022/10/29 16:45:22;;;;;;;62.58;29.15;;;;;;;;;;5014678;28;20400;-85
2022/10/29 16:47:50;;;;;;;56.53;26.33;;;;;;;;;;5012571;28;20408;-86
2022/10/29 16:50:17;;;;;;;48.23;23.00;;;;;;;;;;5013429;28;20393;-86
2022/10/29 16:52:43;;;;;;;50.15;23.13;;;;;;;;;;5015292;28;20460;-86
2022/10/29 16:55:10;;;;;;;53.55;25.60;;;;;;;;;;5048419;28;20925;-84
2022/10/29 16:57:36;;;;;;;80.45;36.60;;;;;;;;;;5021308;28;20388;-85
2022/10/29 17:00:02;;;;;;;130.38;57.03;;;;;;;;;;5030618;28;20389;-84
2022/10/29 17:02:28;;;;;;;78.90;34.42;;;;;;;;;;5019903;28;20965;-86
2022/10/29 17:04:54;;;;;;;97.97;42.00;;;;;;;;;;5051056;28;20508;-84
2022/10/29 17:07:20;;;;;;;143.13;60.88;;;;;;;;;;5017225;28;20727;-85
2022/10/29 17:09:46;;;;;;;109.47;47.35;;;;;;;;;;5012745;28;20472;-85
2022/10/29 17:12:12;;;;;;;102.13;46.47;;;;;;;;;;5036250;28;20941;-88
2022/10/29 17:14:38;;;;;;;100.00;43.13;;;;;;;;;;5053110;28;20391;-89
2022/10/29 17:17:09;;;;;;;85.57;39.30;;;;;;;;;;5051088;28;20456;-88
2022/10/29 17:19:36;;;;;;;50.67;24.35;;;;;;;;;;5045340;28;20417;-90
2022/10/29 17:22:03;;;;;;;40.97;21.20;;;;;;;;;;5048333;28;20373;-89
2022/10/29 17:24:29;;;;;;;38.53;18.90;;;;;;;;;;5034381;28;20418;-85
2022/10/29 17:26:55;;;;;;;29.90;15.63;;;;;;;;;;5032299;28;20417;-85
2022/10/29 17:29:21;;;;;;;119.00;51.70;;;;;;;;;;5015924;28;20817;-86
2022/10/29 17:31:47;;;;;;;116.90;49.08;;;;;;;;;;5016438;28;20385;-86
2022/10/29 17:34:13;;;;;;;56.40;25.60;;;;;;;;;;5019712;28;20475;-86
2022/10/29 17:36:42;;;;;;;70.32;28.52;;;;;;;;;;5027473;28;20488;-89
2022/10/29 17:39:08;;;;;;;103.55;43.47;;;;;;;;;;5052468;28;20385;-85
2022/10/29 17:41:36;;;;;;;104.30;43.55;;;;;;;;;;5042589;28;20413;-85
2022/10/29 17:44:02;;;;;;;98.30;40.35;;;;;;;;;;5043035;28;20392;-85
2022/10/29 17:46:28;;;;;;;139.13;52.50;;;;;;;;;;5052537;28;21017;-85
2022/10/29 17:48:55;;;;;;;92.20;39.07;;;;;;;;;;5052323;28;20416;-86
2022/10/29 17:51:21;;;;;;;113.40;44.70;;;;;;;;;;5018466;28;20500;-85
2022/10/29 17:53:47;;;;;;;85.60;34.25;;;;;;;;;;5028718;28;20396;-86
2022/10/29 17:56:13;;;;;;;77.40;32.22;;;;;;;;;;5039313;28;20458;-89
2022/10/29 17:58:39;;;;;;;81.82;33.25;;;;;;;;;;5030518;28;20392;-88
2022/10/29 18:01:06;;;;;;;75.40;31.38;;;;;;;;;;5032036;28;20444;-88
2022/10/29 18:03:32;;;;;;;66.07;26.95;;;;;;;;;;5030312;28;20398;-87
2022/10/29 18:06:00;;;;;;;64.88;25.70;;;;;;;;;;5030103;28;20442;-87
2022/10/29 18:08:26;;;;;;;52.75;22.77;;;;;;;;;;5015192;28;20390;-87
2022/10/29 18:10:52;;;;;;;46.93;19.53;;;;;;;;;;5031745;28;20504;-88
2022/10/29 18:13:18;;;;;;;95.85;35.35;;;;;;;;;;5026936;28;20418;-88
2022/10/29 18:15:44;;;;;;;138.52;53.63;;;;;;;;;;5011861;28;20391;-89
2022/10/29 18:18:11;;;;;;;180.77;68.30;;;;;;;;;;5013441;28;20447;-87
2022/10/29 18:20:37;;;;;;;81.85;32.47;;;;;;;;;;5026171;28;20872;-87
2022/10/29 18:23:03;;;;;;;121.25;50.70;;;;;;;;;;5025611;28;20399;-88
2022/10/29 18:25:29;;;;;;;105.32;44.80;;;;;;;;;;5031209;28;20398;-89
2022/10/29 18:27:55;;;;;;;101.13;45.60;;;;;;;;;;5012163;28;20391;-88
2022/10/29 18:30:21;;;;;;;93.45;37.80;;;;;;;;;;5015436;28;20416;-88
2022/10/29 18:32:48;;;;;;;72.28;31.23;;;;;;;;;;5031354;28;20391;-87
2022/10/29 18:35:14;;;;;;;79.70;33.47;;;;;;;;;;5049039;28;20414;-87
2022/10/29 18:37:40;;;;;;;78.05;35.15;;;;;;;;;;5032534;28;20391;-87
2022/10/29 18:40:06;;;;;;;70.68;30.75;;;;;;;;;;5014614;28;20643;-87
2022/10/29 18:42:32;;;;;;;41.13;19.48;;;;;;;;;;5018204;28;20473;-88
2022/10/29 18:44:58;;;;;;;25.75;13.77;;;;;;;;;;5015767;28;20477;-88
2022/10/29 18:47:24;;;;;;;35.50;16.63;;;;;;;;;;5034572;28;20851;-87
2022/10/29 18:49:50;;;;;;;30.73;15.30;;;;;;;;;;5042973;28;20377;-88
2022/10/29 18:52:16;;;;;;;26.02;13.98;;;;;;;;;;5054828;28;20382;-87
2022/10/29 18:54:42;;;;;;;24.10;12.70;;;;;;;;;;5055805;28;20381;-87
2022/10/29 18:57:08;;;;;;;18.15;11.70;;;;;;;;;;5041444;28;20391;-88
2022/10/29 18:59:34;;;;;;;19.58;11.38;;;;;;;;;;5055349;28;20389;-88
2022/10/29 19:02:05;;;;;;;18.97;11.73;;;;;;;;;;5055469;28;20378;-87
2022/10/29 19:04:31;;;;;;;17.65;10.82;;;;;;;;;;5055790;28;20377;-88
2022/10/29 19:06:57;;;;;;;18.42;10.40;;;;;;;;;;5047225;28;20370;-88
2022/10/29 19:09:23;;;;;;;15.27;10.23;;;;;;;;;;5055544;28;20380;-85
2022/10/29 19:11:50;;;;;;;22.35;10.27;;;;;;;;;;5055618;28;20377;-88
2022/10/29 19:14:16;;;;;;;65.78;12.23;;;;;;;;;;5055595;28;20719;-87
2022/10/29 19:16:42;;;;;;;29.07;9.37;;;;;;;;;;5038412;28;20411;-88
2022/10/29 19:19:10;;;;;;;22.23;9.55;;;;;;;;;;5054359;28;20909;-88
2022/10/29 19:21:37;;;;;;;26.08;10.00;;;;;;;;;;5023576;28;20410;-87
2022/10/29 19:24:04;;;;;;;20.52;11.07;;;;;;;;;;5029121;28;20410;-87
2022/10/29 19:26:32;;;;;;;19.15;10.77;;;;;;;;;;5027079;28;20414;-85
2022/10/29 19:28:59;;;;;;;20.40;10.75;;;;;;;;;;5028478;28;20379;-85
2022/10/29 19:31:26;;;;;;;24.08;10.60;;;;;;;;;;5030505;28;20404;-88
2022/10/29 19:33:53;;;;;;;22.63;10.07;;;;;;;;;;5009923;28;20459;-86
2022/10/29 19:36:20;;;;;;;21.23;9.98;;;;;;;;;;5022329;28;20902;-86
2022/10/29 19:38:46;;;;;;;27.85;12.45;;;;;;;;;;5025140;28;20400;-86
2022/10/29 19:41:12;;;;;;;16.73;11.20;;;;;;;;;;5037388;28;20403;-86
2022/10/29 19:43:39;;;;;;;23.70;11.75;;;;;;;;;;5032415;28;20399;-86
2022/10/29 19:46:12;;;;;;;18.17;10.40;;;;;;;;;;5021781;28;20413;-86
2022/10/29 19:48:38;;;;;;;20.40;10.55;;;;;;;;;;5029956;28;20375;-86
2022/10/29 19:51:05;;;;;;;15.73;9.95;;;;;;;;;;5028320;28;20399;-86